EGNH Airport Information

Runway Information
Runway 07 Length 2621 ft width 98 ft
Elevation 33 ft Threshold 126 ft Heading 68
Runway 25 Length 2621 ft Width 98 ft
Elevation 29 ft Threshold 325 ft Heading 248
Runway 10 Length 6132 ft width 151 ft
Elevation 32 ft Threshold 0 ft Heading 95
Runway 28 Length 6132 ft Width 151 ft
Elevation 28 ft Threshold 0 ft Heading 275
Runway 13 Length 3533 ft width 75 ft
Elevation 32 ft Threshold 478 ft Heading 127
Runway 31 Length 3533 ft Width 75 ft
Elevation 30 ft Threshold 0 ft Heading 307
Airport Frequencies
Type APP Name APP Frequency 119.95 MHZ
Type ATIS Name ATIS Frequency 121.75 MHZ
Type TWR Name TWR Frequency 118.4 MHZ
Airport Navaids
Airport Weather Information & NOTAM
ADDS - METARS form results

(1418 UTC 25 October 2021)
Data provider http://aviationweather.gov/metar/data/
 
METAR text: EGNH 251350Z 27018KT 9999 SCT025 14/09 Q1011
Conditions at: EGNH (BLACKPOOL AIRPOR, GB) observed 1350 UTC 25 October 2021
Temperature: 14.0°C (57°F)
Dewpoint: 9.0°C (48°F) [RH = 72%]
Pressure (altimeter): 29.85 inches Hg (1011.0 mb)
Winds: from the W (270 degrees) at 21 MPH (18 knots; 9.3 m/s)
Visibility: 6 or more miles (10+ km)
Ceiling: at least 12,000 feet AGL
Clouds: scattered clouds at 2500 feet AGL
Weather: no significant weather observed at this time

METAR text: EGNH 251320Z 27016KT 9999 SCT026 14/09 Q1011
Conditions at: EGNH (BLACKPOOL AIRPOR, GB) observed 1320 UTC 25 October 2021
Temperature: 14.0°C (57°F)
Dewpoint: 9.0°C (48°F) [RH = 72%]
Pressure (altimeter): 29.85 inches Hg (1011.0 mb)
Winds: from the W (270 degrees) at 18 MPH (16 knots; 8.2 m/s)
Visibility: 6 or more miles (10+ km)
Ceiling: at least 12,000 feet AGL
Clouds: scattered clouds at 2600 feet AGL
Weather: no significant weather observed at this time

Forecast for: EGNH (BLACKPOOL AIRPOR, GB)
Text: TAF EGNH 251402Z 2515/2520 25015KT 9999 SCT025
Forecast period: 1500 to 2000 UTC 25 October 2021
Forecast type: FROM: standard forecast or significant change
Winds: from the WSW (250 degrees) at 17 MPH (15 knots; 7.7 m/s)
Visibility: 6 or more miles (10+ km)
Ceiling: at least 12,000 feet AGL
Clouds: scattered clouds at 2500 feet AGL
Weather: no significant weather forecast for this period
Text: PROB30
Forecast period: 1500 to 2000 UTC 25 October 2021
Forecast type: TEMPORARY: The following changes expected for less than half the time period
Visibility: 4 miles (7 km)
Ceiling: unknown
Clouds: missing
Weather: SHRA  (rain showers)